createdAt,value
2023-09-08T00:01:54.704Z,0.0
2023-09-08T00:07:01.024Z,0.0
2023-09-08T00:12:08.092Z,0.0
2023-09-08T00:17:14.555Z,0.0
2023-09-08T00:22:21.002Z,0.0
2023-09-08T00:27:27.372Z,0.0
2023-09-08T00:32:33.876Z,0.0
2023-09-08T00:37:40.100Z,0.0
2023-09-08T00:42:46.488Z,0.0
2023-09-08T00:47:52.944Z,0.0
2023-09-08T00:52:58.282Z,0.0
2023-09-08T00:58:05.674Z,0.0
2023-09-08T01:03:12.139Z,0.0
2023-09-08T01:08:22.059Z,0.0
2023-09-08T01:13:28.584Z,0.0
2023-09-08T01:21:12.558Z,0.0
2023-09-08T01:26:14.893Z,0.0
2023-09-08T01:31:25.413Z,0.0
2023-09-08T01:36:07.765Z,0.0
2023-09-08T01:41:14.328Z,0.0
2023-09-08T01:46:20.744Z,0.0
2023-09-08T01:51:27.171Z,0.0
2023-09-08T01:56:33.600Z,0.0
2023-09-08T02:01:40.013Z,0.0
2023-09-08T02:06:46.489Z,0.0
2023-09-08T02:11:52.888Z,0.0
2023-09-08T02:16:49.287Z,0.0
2023-09-08T02:22:32.294Z,0.0
2023-09-08T02:27:15.664Z,0.0
2023-09-08T02:32:42.109Z,0.0
2023-09-08T02:37:28.397Z,0.0
2023-09-08T02:42:34.979Z,0.0
2023-09-08T02:47:31.275Z,0.0
2023-09-08T02:53:07.710Z,0.0
2023-09-08T02:57:54.339Z,0.0
2023-09-08T03:03:00.716Z,0.0
2023-09-08T03:13:14.080Z,0.0
2023-09-08T03:18:20.529Z,0.0
2023-09-08T03:23:31.119Z,0.0
2023-09-08T03:28:57.520Z,0.0
2023-09-08T03:33:44.004Z,0.0
2023-09-08T03:38:50.263Z,0.0
2023-09-08T03:43:56.652Z,0.0
2023-09-08T03:48:53.142Z,0.0
2023-09-08T03:54:29.636Z,0.0
2023-09-08T03:59:16.035Z,0.0
2023-09-08T04:04:22.441Z,0.0
2023-09-08T04:09:28.815Z,0.0
2023-09-08T04:14:35.392Z,0.0
2023-09-08T04:19:41.612Z,0.0
2023-09-08T04:24:37.938Z,4.0
2023-09-08T04:29:54.429Z,8.0
2023-09-08T04:35:24.788Z,16.0
2023-09-08T04:40:07.101Z,44.0
2023-09-08T04:45:13.494Z,88.0
2023-09-08T04:50:39.947Z,156.0
2023-09-08T04:55:26.374Z,252.0
2023-09-08T05:00:22.746Z,384.0
2023-09-08T05:05:29.372Z,528.0
2023-09-08T05:10:45.755Z,684.0
2023-09-08T05:15:42.127Z,848.0
2023-09-08T05:21:22.606Z,1012.0
2023-09-08T05:26:04.901Z,1168.0
2023-09-08T05:31:11.289Z,1328.0
2023-09-08T05:36:17.644Z,1500.0
2023-09-08T05:41:14.022Z,1628.0
2023-09-08T05:47:14.592Z,1748.0
2023-09-08T05:52:00.876Z,1856.0
2023-09-08T05:56:43.205Z,1960.0
2023-09-08T06:02:09.611Z,2064.0
2023-09-08T06:06:55.970Z,2176.0
2023-09-08T06:12:02.469Z,2284.0
2023-09-08T06:17:08.928Z,2392.0
2023-09-08T06:22:15.311Z,2504.0
2023-09-08T06:27:21.720Z,2616.0
2023-09-08T06:32:28.153Z,2736.0
2023-09-08T06:37:34.449Z,2864.0
2023-09-08T06:43:04.896Z,3052.0
2023-09-08T06:47:47.279Z,3248.0
2023-09-08T06:52:53.597Z,3504.0
2023-09-08T06:58:20.042Z,3772.0
2023-09-08T07:04:26.661Z,3992.0
2023-09-08T07:08:02.712Z,4208.0
2023-09-08T07:13:39.452Z,13332.0
2023-09-08T07:18:45.689Z,18272.0
2023-09-08T07:23:22.028Z,19840.0
2023-09-08T07:28:38.569Z,21408.0
2023-09-08T07:33:45.011Z,23328.0
2023-09-08T07:38:41.370Z,26336.0
2023-09-08T07:43:57.988Z,28704.0
2023-09-08T07:49:04.206Z,31008.0
2023-09-08T07:54:10.586Z,31808.0
2023-09-08T08:01:17.237Z,34560.0
2023-09-08T08:04:23.466Z,37504.0
2023-09-08T08:09:19.734Z,37824.0
2023-09-08T08:15:00.300Z,41248.0
2023-09-08T08:20:20.693Z,41344.0
2023-09-08T08:24:48.893Z,47552.0
2023-09-08T08:30:15.299Z,46464.0
2023-09-08T08:35:01.627Z,50464.0
2023-09-08T08:40:08.036Z,48768.0
2023-09-08T08:45:15.552Z,48736.0
2023-09-08T08:50:24.205Z,54176.0
2023-09-08T08:55:29.552Z,55648.0
2023-09-08T09:00:35.900Z,60032.0
2023-09-08T09:05:46.820Z,56864.0
2023-09-08T09:10:50.873Z,56128.0
2023-09-08T09:16:53.330Z,60448.0
2023-09-08T09:21:27.655Z,65120.0
2023-09-08T09:26:34.091Z,63424.0
2023-09-08T09:31:16.330Z,65632.0
2023-09-08T09:37:06.738Z,70016.0
2023-09-08T09:41:53.131Z,70016.0
2023-09-08T09:46:59.508Z,71392.0
2023-09-08T09:51:41.858Z,71328.0
2023-09-08T09:56:50.340Z,74240.0
2023-09-08T10:01:54.728Z,74976.0
2023-09-08T10:07:00.974Z,70496.0
2023-09-08T10:12:07.477Z,69024.0
2023-09-08T10:17:13.998Z,72224.0
2023-09-08T10:22:20.547Z,70240.0
2023-09-08T10:27:16.836Z,75584.0
2023-09-08T10:32:33.241Z,77632.0
2023-09-08T10:38:03.612Z,79744.0
2023-09-08T10:42:45.995Z,77632.0
2023-09-08T10:47:52.357Z,84960.0
2023-09-08T10:53:32.981Z,81184.0
2023-09-08T11:03:11.509Z,81504.0
2023-09-08T11:08:42.623Z,76736.0
2023-09-08T11:14:09.000Z,82912.0
2023-09-08T11:18:35.246Z,82656.0
2023-09-08T11:23:41.294Z,75328.0
2023-09-08T11:28:47.675Z,78752.0
2023-09-08T11:34:14.338Z,78272.0
2023-09-08T11:38:50.600Z,79008.0
2023-09-08T11:44:07.013Z,73248.0
2023-09-08T11:49:13.431Z,76736.0
2023-09-08T11:54:51.855Z,75776.0
2023-09-08T11:59:26.258Z,82528.0
2023-09-08T12:05:28.779Z,76288.0
2023-09-08T12:09:28.982Z,78144.0
2023-09-08T12:14:48.136Z,75392.0
2023-09-08T12:19:51.765Z,76320.0
2023-09-08T12:24:58.242Z,77376.0
2023-09-08T12:30:04.553Z,75200.0
2023-09-08T12:35:10.911Z,73312.0
2023-09-08T12:40:17.361Z,68672.0
2023-09-08T12:45:37.803Z,67136.0
2023-09-08T12:51:14.297Z,72160.0
2023-09-08T12:55:56.739Z,73728.0
2023-09-08T13:01:27.230Z,73888.0
2023-09-08T13:05:49.600Z,69472.0
2023-09-08T13:11:39.983Z,69056.0
2023-09-08T13:16:02.294Z,71232.0
2023-09-08T13:21:08.671Z,67712.0
2023-09-08T13:26:15.000Z,68064.0
2023-09-08T13:31:21.451Z,62368.0
2023-09-08T13:36:27.801Z,58752.0
2023-09-08T13:41:34.116Z,54176.0
2023-09-08T13:46:40.644Z,52992.0
2023-09-08T13:51:49.363Z,48768.0
2023-09-08T13:57:21.022Z,42176.0
2023-09-08T14:17:43.032Z,24000.0
2023-09-08T14:22:25.341Z,23648.0
2023-09-08T14:27:21.717Z,13464.0
2023-09-08T14:32:38.137Z,6472.0
2023-09-08T14:37:44.502Z,6216.0
2023-09-08T14:43:14.966Z,5996.0
2023-09-08T14:47:59.569Z,5836.0
2023-09-08T14:53:23.733Z,5672.0
2023-09-08T14:58:24.118Z,5460.0
2023-09-08T15:03:16.535Z,5292.0
2023-09-08T15:08:23.002Z,5172.0
2023-09-08T15:13:49.476Z,5040.0
2023-09-08T15:18:35.821Z,4972.0
2023-09-08T15:23:42.204Z,4844.0
2023-09-08T15:28:48.647Z,4768.0
2023-09-08T15:33:55.106Z,4680.0
2023-09-08T15:39:01.373Z,4744.0
2023-09-08T15:44:07.750Z,4580.0
2023-09-08T15:49:14.227Z,4520.0
2023-09-08T15:54:20.565Z,4412.0
2023-09-08T15:59:26.995Z,4300.0
2023-09-08T16:04:33.649Z,4188.0
2023-09-08T16:09:39.856Z,4040.0
2023-09-08T16:15:06.327Z,3860.0
2023-09-08T16:20:18.154Z,3628.0
2023-09-08T16:24:59.012Z,3444.0
2023-09-08T16:30:05.388Z,3300.0
2023-09-08T16:35:11.760Z,6480.0
2023-09-08T16:40:18.152Z,2776.0
2023-09-08T16:45:24.518Z,3012.0
2023-09-08T16:50:44.920Z,2432.0
2023-09-08T16:55:37.509Z,2308.0
2023-09-08T17:01:08.022Z,2112.0
2023-09-08T17:06:14.512Z,1972.0
2023-09-08T17:10:58.499Z,1752.0
2023-09-08T17:16:03.192Z,1628.0
2023-09-08T17:21:09.556Z,1420.0
2023-09-08T17:26:15.969Z,1212.0
2023-09-08T17:31:42.382Z,988.0
2023-09-08T17:37:10.772Z,764.0
2023-09-08T17:41:35.115Z,640.0
2023-09-08T17:47:09.592Z,484.0
2023-09-08T17:52:24.638Z,328.0
2023-09-08T17:57:32.125Z,220.0
2023-09-08T18:02:42.480Z,144.0
2023-09-08T18:07:44.760Z,92.0
2023-09-08T18:12:51.372Z,52.0
2023-09-08T18:18:21.773Z,24.0
2023-09-08T18:23:04.157Z,12.0
2023-09-08T18:28:30.827Z,4.0
2023-09-08T18:33:38.000Z,0.0
2023-09-08T18:38:24.191Z,0.0
2023-09-08T18:43:30.532Z,0.0
2023-09-08T18:48:36.966Z,0.0
2023-09-08T18:54:34.435Z,0.0
2023-09-08T18:58:52.715Z,0.0
2023-09-08T19:04:23.201Z,0.0
2023-09-08T19:09:29.699Z,0.0
2023-09-08T19:14:02.014Z,0.0
2023-09-08T19:19:57.517Z,0.0
2023-09-08T19:24:24.509Z,0.0
2023-09-08T19:29:31.853Z,0.0
2023-09-08T19:34:58.524Z,0.0
2023-09-08T19:39:44.914Z,0.0
2023-09-08T19:44:51.264Z,0.0
2023-09-08T19:50:17.696Z,0.0
2023-09-08T19:55:04.070Z,0.0
2023-09-08T20:00:10.462Z,0.0
2023-09-08T20:05:16.884Z,0.0
2023-09-08T20:10:23.389Z,0.0
2023-09-08T20:16:41.978Z,0.0
2023-09-08T20:21:15.216Z,0.0
2023-09-08T20:25:41.642Z,0.0
2023-09-08T20:31:52.350Z,0.0
2023-09-08T20:36:38.669Z,0.0
2023-09-08T20:42:00.216Z,0.0
2023-09-08T20:47:27.692Z,0.0
2023-09-08T20:52:09.979Z,0.0
2023-09-08T20:57:20.391Z,0.0
2023-09-08T21:02:41.821Z,0.0
2023-09-08T21:07:28.154Z,0.0
2023-09-08T21:12:15.560Z,0.0
2023-09-08T21:17:21.951Z,0.0
2023-09-08T21:22:48.332Z,0.0
2023-09-08T21:27:34.708Z,0.0
2023-09-08T21:33:01.342Z,0.0
2023-09-08T21:37:37.555Z,0.0
2023-09-08T21:42:43.933Z,0.0
2023-09-08T21:48:44.702Z,0.0
2023-09-08T21:53:50.976Z,0.0
2023-09-08T22:05:24.949Z,0.0
2023-09-08T22:18:55.650Z,0.0
2023-09-08T22:24:27.042Z,0.0
2023-09-08T22:29:45.073Z,0.0
2023-09-08T22:35:16.481Z,0.0
2023-09-08T22:39:58.826Z,0.0
2023-09-08T22:45:43.310Z,0.0
2023-09-08T22:50:11.542Z,0.0
2023-09-08T22:55:25.875Z,0.0
2023-09-08T23:00:24.420Z,0.0
2023-09-08T23:06:04.858Z,0.0
2023-09-08T23:12:34.549Z,0.0
2023-09-08T23:17:40.866Z,0.0
2023-09-08T23:22:48.185Z,0.0
2023-09-08T23:27:58.592Z,0.0
2023-09-08T23:33:01.836Z,0.0
2023-09-08T23:38:32.220Z,0.0
2023-09-08T23:43:18.592Z,0.0
2023-09-08T23:48:40.987Z,0.0
2023-09-08T23:53:47.378Z,0.0
2023-09-08T23:59:12.852Z,0.0
